Time;durP1;ratioP1;P1;durP2;ratioP2;P2;SDS_P1;SDS_P2;PMS_P1;PMS_P2;Temp;Humidity;BMP_temperature;BMP_pressure;BME280_temperature;BME280_humidity;BME280_pressure;Samples;Min_cycle;Max_cycle;Signal;HPM_P1;HPM_P2
2021/08/18 00:02:25;;;;;;;29.52;22.10;;;13.60;99.90;;;;;;5049850;28;20043;-40
2021/08/18 00:04:52;;;;;;;28.35;20.90;;;13.70;99.90;;;;;;5049649;28;20083;-40
2021/08/18 00:07:19;;;;;;;27.00;20.70;;;13.70;99.90;;;;;;5048980;28;20032;-40
2021/08/18 00:09:44;;;;;;;29.15;20.70;;;13.70;99.90;;;;;;5048003;28;20474;-40
2021/08/18 00:12:10;;;;;;;25.83;20.20;;;13.80;99.90;;;;;;5049470;28;20112;-40
2021/08/18 00:14:35;;;;;;;25.02;19.38;;;13.80;99.90;;;;;;5049477;28;20529;-40
2021/08/18 00:17:01;;;;;;;27.52;19.92;;;13.80;99.90;;;;;;5049181;28;20413;-40
2021/08/18 00:19:27;;;;;;;29.25;20.90;;;13.80;99.90;;;;;;5049352;28;20033;-42
2021/08/18 00:21:53;;;;;;;26.85;19.27;;;13.80;99.90;;;;;;5048008;28;20036;-41
2021/08/18 00:24:18;;;;;;;27.30;18.58;;;13.80;99.90;;;;;;5049585;28;20033;-41
2021/08/18 00:26:44;;;;;;;24.83;19.38;;;13.90;99.90;;;;;;5048739;28;20150;-41
2021/08/18 00:29:10;;;;;;;23.35;18.35;;;13.80;99.90;;;;;;5049383;28;20025;-40
2021/08/18 00:31:35;;;;;;;25.45;18.40;;;13.80;99.90;;;;;;5049329;28;20118;-43
2021/08/18 00:34:01;;;;;;;21.65;17.70;;;13.80;99.90;;;;;;5049078;28;20029;-41
2021/08/18 00:36:26;;;;;;;22.65;17.30;;;13.90;99.90;;;;;;5048508;28;20418;-41
2021/08/18 00:38:52;;;;;;;23.23;17.73;;;13.90;99.90;;;;;;5049267;28;20025;-41
2021/08/18 00:41:20;;;;;;;22.08;17.02;;;13.90;99.90;;;;;;5049133;28;20031;-41
2021/08/18 00:43:45;;;;;;;23.77;17.02;;;13.90;99.90;;;;;;5049101;28;20071;-41
2021/08/18 00:46:11;;;;;;;24.38;17.38;;;13.90;99.90;;;;;;5048430;28;20060;-41
2021/08/18 00:48:37;;;;;;;21.05;16.95;;;13.90;99.90;;;;;;5048298;28;20100;-41
2021/08/18 00:51:03;;;;;;;23.23;16.48;;;13.90;99.90;;;;;;5049033;28;20071;-41
2021/08/18 00:53:28;;;;;;;22.02;16.52;;;13.90;99.90;;;;;;5047783;28;20025;-41
2021/08/18 00:55:56;;;;;;;20.67;17.23;;;13.90;99.90;;;;;;5047598;28;20017;-41
2021/08/18 00:58:21;;;;;;;24.13;17.35;;;13.90;99.90;;;;;;5048151;28;20090;-41
2021/08/18 01:00:47;;;;;;;20.77;16.13;;;13.90;99.90;;;;;;5048715;28;20037;-41
2021/08/18 01:03:12;;;;;;;22.95;16.23;;;13.90;99.90;;;;;;5049169;28;20191;-41
2021/08/18 01:05:38;;;;;;;24.60;18.85;;;13.90;99.90;;;;;;5048576;28;20028;-41
2021/08/18 01:08:03;;;;;;;22.25;15.98;;;13.90;99.90;;;;;;5047951;28;20044;-40
2021/08/18 01:10:32;;;;;;;23.90;17.50;;;13.90;99.90;;;;;;5048521;28;20045;-40
2021/08/18 01:12:58;;;;;;;22.80;16.33;;;13.90;99.90;;;;;;5048507;28;20025;-40
2021/08/18 01:15:26;;;;;;;18.83;15.27;;;13.90;99.90;;;;;;5048516;28;20079;-40
2021/08/18 01:17:54;;;;;;;20.73;16.23;;;14.00;99.90;;;;;;5047886;28;20470;-40
2021/08/18 01:20:24;;;;;;;22.17;16.95;;;14.00;99.90;;;;;;5048416;28;20035;-40
2021/08/18 01:22:50;;;;;;;25.30;17.83;;;14.00;99.90;;;;;;5048474;28;20504;-40
2021/08/18 01:25:17;;;;;;;21.67;16.67;;;14.00;99.90;;;;;;5048459;28;20078;-40
2021/08/18 01:27:46;;;;;;;20.33;16.00;;;14.00;99.90;;;;;;5047867;28;20509;-40
2021/08/18 01:30:13;;;;;;;20.88;16.08;;;14.00;99.90;;;;;;5048296;28;20021;-40
2021/08/18 01:32:57;;;;;;;23.40;16.70;;;14.00;99.90;;;;;;5048796;28;20055;-40
2021/08/18 01:35:28;;;;;;;19.67;14.63;;;14.00;99.90;;;;;;5048178;28;20113;-40
2021/08/18 01:37:54;;;;;;;24.45;18.13;;;14.00;99.90;;;;;;5047706;28;20018;-40
2021/08/18 01:40:21;;;;;;;23.48;16.50;;;14.10;99.90;;;;;;5048468;28;20021;-40
2021/08/18 01:42:49;;;;;;;20.20;15.90;;;14.10;99.90;;;;;;5048419;28;20027;-40
2021/08/18 01:45:24;;;;;;;21.92;15.98;;;14.10;99.90;;;;;;5048459;28;20032;-40
2021/08/18 01:47:50;;;;;;;26.17;16.77;;;14.20;99.90;;;;;;5048052;28;20112;-40
2021/08/18 01:50:17;;;;;;;26.85;18.38;;;14.10;99.90;;;;;;5048374;28;20036;-40
2021/08/18 01:52:43;;;;;;;25.15;16.95;;;14.10;99.90;;;;;;5048404;28;20024;-40
2021/08/18 01:55:09;;;;;;;25.77;17.67;;;14.10;99.90;;;;;;5048128;28;20078;-40
2021/08/18 01:57:36;;;;;;;24.92;17.63;;;14.10;99.90;;;;;;5046105;28;20025;-41
2021/08/18 02:00:04;;;;;;;22.90;16.38;;;14.10;99.90;;;;;;5049957;28;20078;-41
2021/08/18 02:02:29;;;;;;;23.70;16.50;;;14.00;99.90;;;;;;5052004;28;20491;-41
2021/08/18 02:04:56;;;;;;;24.15;16.17;;;14.00;99.90;;;;;;5052042;28;20048;-41
2021/08/18 02:07:22;;;;;;;22.83;16.38;;;14.10;99.90;;;;;;5051527;28;20033;-41
2021/08/18 02:09:47;;;;;;;24.35;16.83;;;14.00;99.90;;;;;;5050481;28;20513;-41
2021/08/18 02:12:13;;;;;;;24.08;16.95;;;14.10;99.90;;;;;;5051810;28;20029;-41
2021/08/18 02:14:39;;;;;;;24.48;17.13;;;14.10;99.90;;;;;;5051779;28;20041;-41
2021/08/18 02:17:05;;;;;;;22.60;16.25;;;14.10;99.90;;;;;;5051410;28;20029;-41
2021/08/18 02:19:30;;;;;;;22.10;16.52;;;14.10;99.90;;;;;;5051443;28;20025;-41
2021/08/18 02:21:56;;;;;;;23.75;16.70;;;14.10;99.90;;;;;;5062596;28;20501;-41
2021/08/18 02:24:21;;;;;;;25.35;17.50;;;14.10;99.90;;;;;;5061448;28;20120;-40
2021/08/18 02:26:47;;;;;;;22.58;16.05;;;14.10;99.90;;;;;;5059461;28;20028;-40
2021/08/18 02:29:12;;;;;;;22.27;16.48;;;14.10;99.90;;;;;;5060150;28;20175;-40
2021/08/18 02:31:38;;;;;;;21.85;15.82;;;14.10;99.90;;;;;;5060009;28;20025;-40
2021/08/18 02:34:03;;;;;;;20.35;14.45;;;14.10;99.90;;;;;;5062135;28;20017;-40
2021/08/18 02:36:29;;;;;;;23.77;16.33;;;14.10;99.90;;;;;;5057836;28;20090;-40
2021/08/18 02:38:54;;;;;;;19.52;14.27;;;14.10;99.90;;;;;;5061781;28;20202;-40
2021/08/18 02:41:20;;;;;;;22.30;16.35;;;14.20;99.90;;;;;;5061864;28;20028;-40
2021/08/18 02:43:45;;;;;;;22.33;14.95;;;14.10;99.90;;;;;;5060642;28;20463;-40
2021/08/18 02:46:11;;;;;;;22.25;15.77;;;14.10;99.90;;;;;;5059921;28;20084;-40
2021/08/18 02:48:36;;;;;;;19.55;14.20;;;14.10;99.90;;;;;;5061905;28;20150;-40
2021/08/18 02:51:02;;;;;;;21.02;14.35;;;14.10;99.90;;;;;;5059688;28;20039;-40
2021/08/18 02:53:27;;;;;;;23.33;16.15;;;14.10;99.90;;;;;;5060957;28;20024;-41
2021/08/18 02:55:53;;;;;;;25.40;16.63;;;14.10;99.90;;;;;;5061404;28;20026;-41
2021/08/18 02:58:18;;;;;;;20.23;15.20;;;14.10;99.90;;;;;;5058990;28;20394;-41
2021/08/18 03:00:44;;;;;;;19.55;14.43;;;14.10;99.90;;;;;;5061191;28;20053;-41
2021/08/18 03:03:09;;;;;;;20.67;13.88;;;14.10;99.90;;;;;;5060518;28;20100;-42
2021/08/18 03:05:35;;;;;;;18.95;13.80;;;14.10;99.90;;;;;;5059928;28;20028;-41
2021/08/18 03:08:00;;;;;;;22.40;15.32;;;14.10;99.90;;;;;;5061317;28;20253;-41
2021/08/18 03:10:26;;;;;;;22.52;14.00;;;14.10;99.90;;;;;;5059824;28;20024;-41
2021/08/18 03:12:51;;;;;;;18.95;13.38;;;14.10;99.90;;;;;;5059048;28;20055;-41
2021/08/18 03:15:17;;;;;;;21.60;15.35;;;14.10;99.90;;;;;;5059893;28;20136;-41
2021/08/18 03:17:43;;;;;;;21.40;14.27;;;14.10;99.90;;;;;;5059927;28;20108;-41
2021/08/18 03:20:09;;;;;;;20.10;14.13;;;14.10;99.90;;;;;;5059431;28;20029;-41
2021/08/18 03:22:35;;;;;;;22.25;14.23;;;14.10;99.90;;;;;;5059620;28;20032;-41
2021/08/18 03:25:01;;;;;;;23.00;14.30;;;14.20;99.90;;;;;;5059981;28;20016;-41
2021/08/18 03:27:27;;;;;;;21.30;14.40;;;14.10;99.90;;;;;;5060147;28;20110;-41
2021/08/18 03:29:52;;;;;;;19.33;13.55;;;14.20;99.90;;;;;;5062267;28;20032;-41
2021/08/18 03:32:17;;;;;;;20.30;13.68;;;14.10;99.90;;;;;;5058324;28;20440;-41
2021/08/18 03:34:43;;;;;;;19.17;13.52;;;14.10;99.90;;;;;;5060312;28;20033;-41
2021/08/18 03:37:08;;;;;;;22.55;14.60;;;14.10;99.90;;;;;;5062208;28;20138;-41
2021/08/18 03:39:34;;;;;;;22.88;13.57;;;14.10;99.90;;;;;;5062436;28;20029;-42
2021/08/18 03:41:59;;;;;;;28.63;15.10;;;14.20;99.90;;;;;;5070279;28;20513;-42
2021/08/18 03:44:26;;;;;;;21.58;13.82;;;14.20;99.90;;;;;;5069078;28;20478;-42
2021/08/18 03:46:51;;;;;;;20.83;13.15;;;14.10;99.90;;;;;;5069776;28;20378;-42
2021/08/18 03:49:17;;;;;;;20.58;13.55;;;14.20;99.90;;;;;;5069814;28;20445;-42
2021/08/18 03:51:42;;;;;;;18.65;12.50;;;14.20;99.90;;;;;;5069880;28;20040;-41
2021/08/18 03:54:08;;;;;;;18.52;12.20;;;14.20;99.90;;;;;;5070145;28;20082;-41
2021/08/18 03:56:33;;;;;;;20.33;13.07;;;14.20;99.90;;;;;;5067980;28;20393;-42
2021/08/18 03:58:59;;;;;;;19.73;13.60;;;14.20;99.90;;;;;;5069884;28;20024;-41
2021/08/18 04:01:24;;;;;;;19.67;13.27;;;14.20;99.90;;;;;;5069606;28;20071;-41
2021/08/18 04:03:50;;;;;;;20.10;13.57;;;14.20;99.90;;;;;;5068402;28;20402;-41
2021/08/18 04:06:15;;;;;;;20.33;12.85;;;14.20;99.90;;;;;;5069684;28;20413;-41
2021/08/18 04:08:41;;;;;;;18.58;11.70;;;14.20;99.90;;;;;;5069605;28;20028;-42
2021/08/18 04:11:09;;;;;;;16.27;11.75;;;14.20;99.90;;;;;;5069542;28;20029;-42
2021/08/18 04:13:36;;;;;;;17.35;12.20;;;14.20;99.90;;;;;;5069379;28;20029;-50
2021/08/18 04:16:02;;;;;;;16.65;11.88;;;14.20;99.90;;;;;;5069474;28;20179;-42
2021/08/18 04:18:27;;;;;;;16.52;11.43;;;14.20;99.90;;;;;;5069041;28;20390;-41
2021/08/18 04:20:52;;;;;;;18.05;12.75;;;14.20;99.90;;;;;;5069426;28;20051;-42
2021/08/18 04:23:18;;;;;;;18.80;12.75;;;14.20;99.90;;;;;;5067899;28;20099;-41
2021/08/18 04:25:43;;;;;;;17.77;12.85;;;14.20;99.90;;;;;;5069220;28;20395;-42
2021/08/18 04:28:09;;;;;;;15.32;11.00;;;14.30;99.90;;;;;;5067194;28;20028;-43
2021/08/18 04:30:35;;;;;;;15.98;11.80;;;14.30;99.90;;;;;;5069221;28;20024;-41
2021/08/18 04:33:00;;;;;;;16.90;11.38;;;14.30;99.90;;;;;;5069219;28;20151;-42
2021/08/18 04:35:26;;;;;;;17.73;11.65;;;14.30;99.90;;;;;;5069125;28;20383;-42
2021/08/18 04:37:51;;;;;;;17.35;10.90;;;14.30;99.90;;;;;;5068404;28;20052;-42
2021/08/18 04:40:17;;;;;;;14.73;10.40;;;14.30;99.90;;;;;;5069254;28;20028;-43
2021/08/18 04:42:45;;;;;;;14.50;11.07;;;14.30;99.90;;;;;;5069069;28;20504;-43
2021/08/18 04:45:13;;;;;;;15.20;10.52;;;14.40;99.90;;;;;;5068990;28;20108;-42
2021/08/18 04:47:38;;;;;;;14.95;10.43;;;14.40;99.90;;;;;;5068747;28;20393;-41
2021/08/18 04:50:06;;;;;;;14.65;9.73;;;14.40;99.90;;;;;;5067615;28;20021;-42
2021/08/18 04:52:32;;;;;;;13.90;9.60;;;14.40;99.90;;;;;;5068699;28;20023;-42
2021/08/18 04:54:57;;;;;;;15.23;9.85;;;14.40;99.90;;;;;;5068883;28;20020;-41
2021/08/18 04:57:23;;;;;;;13.85;10.02;;;14.40;99.90;;;;;;5068021;28;20035;-42
2021/08/18 04:59:49;;;;;;;16.83;10.48;;;14.40;99.90;;;;;;5068653;28;20093;-41
2021/08/18 05:02:14;;;;;;;16.00;10.32;;;14.40;99.90;;;;;;5068722;28;20282;-42
2021/08/18 05:04:40;;;;;;;14.10;10.48;;;14.40;99.90;;;;;;5068688;28;20029;-41
2021/08/18 05:07:05;;;;;;;15.00;10.30;;;14.50;99.90;;;;;;5067884;28;20030;-41
2021/08/18 05:09:31;;;;;;;13.38;10.20;;;14.50;99.90;;;;;;5068494;28;20408;-40
2021/08/18 05:11:57;;;;;;;14.25;10.00;;;14.50;99.90;;;;;;5068693;28;20266;-40
2021/08/18 05:14:23;;;;;;;14.55;9.63;;;14.50;99.90;;;;;;5068432;28;20025;-41
2021/08/18 05:16:49;;;;;;;14.70;9.93;;;14.50;99.90;;;;;;5067819;28;20044;-41
2021/08/18 05:19:15;;;;;;;14.80;9.68;;;14.60;99.90;;;;;;5067002;28;20094;-42
2021/08/18 05:21:40;;;;;;;16.92;11.02;;;14.60;99.90;;;;;;5066976;28;20486;-42
2021/08/18 05:24:06;;;;;;;13.60;9.82;;;14.80;99.90;;;;;;5067006;28;20036;-43
2021/08/18 05:26:32;;;;;;;11.43;8.27;;;14.80;99.90;;;;;;5067757;28;20036;-42
2021/08/18 05:28:58;;;;;;;12.48;9.60;;;14.90;99.90;;;;;;5068290;28;20036;-42
2021/08/18 05:31:23;;;;;;;11.48;8.15;;;15.00;99.90;;;;;;5067078;28;20035;-42
2021/08/18 05:33:49;;;;;;;11.93;8.90;;;15.20;99.90;;;;;;5068806;28;20017;-42
2021/08/18 05:36:15;;;;;;;11.35;8.43;;;15.30;99.90;;;;;;5073991;28;20390;-41
2021/08/18 05:38:41;;;;;;;10.95;8.43;;;15.30;99.90;;;;;;5074971;28;20032;-41
2021/08/18 05:41:06;;;;;;;12.73;8.77;;;15.40;99.90;;;;;;5074929;28;20035;-42
2021/08/18 05:43:32;;;;;;;15.35;8.73;;;15.40;99.90;;;;;;5074985;28;20035;-42
2021/08/18 05:45:57;;;;;;;11.38;8.15;;;15.40;99.90;;;;;;5067581;28;20025;-42
2021/08/18 05:48:23;;;;;;;11.80;8.30;;;15.40;99.90;;;;;;5063928;28;20031;-42
2021/08/18 05:50:48;;;;;;;11.80;9.13;;;15.50;99.90;;;;;;5063476;28;20039;-42
2021/08/18 05:53:18;;;;;;;10.55;7.95;;;15.40;99.90;;;;;;5063649;28;20139;-42
2021/08/18 05:55:47;;;;;;;12.70;8.55;;;15.40;99.90;;;;;;5074953;28;20012;-42
2021/08/18 05:58:13;;;;;;;13.27;9.65;;;15.50;99.90;;;;;;5072930;28;20024;-42
2021/08/18 06:00:38;;;;;;;12.80;9.65;;;15.50;99.90;;;;;;5074264;28;20028;-42
2021/08/18 06:03:04;;;;;;;12.55;8.77;;;15.50;99.90;;;;;;5074983;28;20020;-41
2021/08/18 06:05:30;;;;;;;12.82;8.88;;;15.60;99.90;;;;;;5075140;28;20027;-42
2021/08/18 06:07:56;;;;;;;11.82;9.55;;;15.60;99.90;;;;;;5060563;28;20044;-41
2021/08/18 06:10:21;;;;;;;13.27;9.00;;;15.60;99.90;;;;;;5060612;28;20064;-41
2021/08/18 06:12:47;;;;;;;13.20;9.32;;;15.70;99.90;;;;;;5064459;28;20077;-41
2021/08/18 06:15:13;;;;;;;11.52;9.20;;;15.80;99.90;;;;;;5062298;28;20021;-42
2021/08/18 06:17:39;;;;;;;12.48;9.38;;;15.90;99.90;;;;;;5060570;28;20029;-42
2021/08/18 06:20:06;;;;;;;10.90;8.75;;;15.90;99.90;;;;;;5062817;28;20485;-42
2021/08/18 06:22:33;;;;;;;12.07;10.00;;;15.80;99.90;;;;;;5064333;28;20044;-41
2021/08/18 06:25:02;;;;;;;13.35;9.60;;;15.70;99.90;;;;;;5064898;28;20040;-41
2021/08/18 06:27:28;;;;;;;12.70;10.05;;;15.60;99.90;;;;;;5062949;28;20390;-41
2021/08/18 06:29:54;;;;;;;12.25;9.75;;;15.60;99.90;;;;;;5062737;28;20054;-41
2021/08/18 06:32:19;;;;;;;13.10;9.48;;;15.60;99.90;;;;;;5063176;28;20020;-41
2021/08/18 06:34:45;;;;;;;11.18;8.88;;;15.60;99.90;;;;;;5064863;28;20020;-40
2021/08/18 06:37:10;;;;;;;15.38;9.80;;;15.60;99.90;;;;;;5063110;28;20210;-41
2021/08/18 06:39:37;;;;;;;18.48;9.60;;;15.60;99.90;;;;;;5059548;28;20063;-41
2021/08/18 06:42:03;;;;;;;12.98;9.38;;;15.60;99.90;;;;;;5054453;28;20056;-41
2021/08/18 06:44:28;;;;;;;14.57;9.50;;;15.70;99.90;;;;;;5054134;28;20262;-41
2021/08/18 06:46:54;;;;;;;10.70;8.93;;;15.70;99.90;;;;;;5049970;28;20032;-40
2021/08/18 06:49:19;;;;;;;12.85;9.88;;;15.80;99.90;;;;;;5050957;28;20417;-41
2021/08/18 06:51:45;;;;;;;10.95;8.60;;;15.80;99.90;;;;;;5050941;28;20475;-42
2021/08/18 06:54:10;;;;;;;11.00;8.55;;;15.80;99.90;;;;;;5050956;28;20482;-41
2021/08/18 06:56:36;;;;;;;11.05;7.97;;;15.90;99.90;;;;;;5053623;28;20049;-41
2021/08/18 06:59:02;;;;;;;10.52;7.60;;;16.10;99.90;;;;;;5052068;28;20037;-41
2021/08/18 07:01:27;;;;;;;9.68;7.60;;;16.30;99.90;;;;;;5051970;28;20509;-41
2021/08/18 07:03:53;;;;;;;9.02;6.65;;;16.40;99.90;;;;;;5050004;28;20060;-42
2021/08/18 07:06:18;;;;;;;9.20;6.80;;;16.50;99.90;;;;;;5048017;28;20498;-42
2021/08/18 07:08:44;;;;;;;9.13;6.53;;;16.60;99.90;;;;;;5050211;28;20048;-42
2021/08/18 07:11:10;;;;;;;10.18;7.30;;;16.60;99.90;;;;;;5050204;28;20033;-41
2021/08/18 07:13:35;;;;;;;10.40;7.38;;;16.50;99.90;;;;;;5049896;28;20542;-42
2021/08/18 07:16:01;;;;;;;8.75;6.40;;;16.60;99.90;;;;;;5048631;28;20179;-41
2021/08/18 07:18:26;;;;;;;10.02;8.23;;;16.60;99.90;;;;;;5049020;28;20032;-41
2021/08/18 07:20:52;;;;;;;9.82;7.15;;;16.50;99.90;;;;;;5049859;28;20036;-41
2021/08/18 07:23:17;;;;;;;9.52;6.75;;;16.50;99.90;;;;;;5049959;28;20037;-42
2021/08/18 07:25:43;;;;;;;8.98;7.10;;;16.70;99.90;;;;;;5050099;28;20036;-41
2021/08/18 07:28:09;;;;;;;12.45;6.57;;;16.90;99.90;;;;;;5049372;28;20568;-41
2021/08/18 07:30:35;;;;;;;8.40;6.57;;;17.10;99.90;;;;;;5048609;28;20116;-42
2021/08/18 07:33:01;;;;;;;8.38;6.90;;;17.30;99.90;;;;;;5049624;28;20029;-42
2021/08/18 07:35:27;;;;;;;8.80;6.30;;;17.40;99.90;;;;;;5048370;28;20021;-41
2021/08/18 07:37:52;;;;;;;6.90;5.38;;;17.80;99.90;;;;;;5049519;28;20386;-41
2021/08/18 07:40:18;;;;;;;5.25;4.60;;;18.00;99.90;;;;;;5050386;28;20037;-42
2021/08/18 07:42:44;;;;;;;7.38;6.18;;;18.10;99.90;;;;;;5050444;28;20027;-42
2021/08/18 07:45:09;;;;;;;9.45;5.63;;;18.30;99.90;;;;;;5050317;28;20498;-42
2021/08/18 07:47:36;;;;;;;9.75;6.18;;;18.40;99.90;;;;;;5050054;28;20025;-42
2021/08/18 07:50:03;;;;;;;7.20;5.45;;;18.50;99.90;;;;;;5050023;28;20024;-41
2021/08/18 07:52:28;;;;;;;6.35;4.97;;;18.70;99.90;;;;;;5049807;28;20398;-42
2021/08/18 07:54:54;;;;;;;8.07;5.85;;;18.80;99.90;;;;;;5050134;28;20101;-41
2021/08/18 07:57:19;;;;;;;7.07;5.28;;;18.90;99.90;;;;;;5048827;28;20119;-42
2021/08/18 07:59:45;;;;;;;7.32;5.45;;;18.90;99.90;;;;;;5049641;28;20035;-42
2021/08/18 08:02:11;;;;;;;6.53;5.25;;;18.90;99.90;;;;;;5048188;28;20025;-42
2021/08/18 08:04:37;;;;;;;7.13;4.93;;;18.80;99.90;;;;;;5049623;28;20490;-43
2021/08/18 08:07:02;;;;;;;7.68;4.85;;;18.80;99.90;;;;;;5048807;28;20032;-43
2021/08/18 08:09:28;;;;;;;6.70;4.60;;;18.90;99.90;;;;;;5048031;28;20033;-42
2021/08/18 08:11:54;;;;;;;4.70;4.10;;;19.00;99.90;;;;;;5049378;28;20057;-42
2021/08/18 08:14:20;;;;;;;7.15;4.25;;;19.10;99.90;;;;;;5049292;28;20032;-42
2021/08/18 08:16:45;;;;;;;5.75;4.43;;;19.30;99.90;;;;;;5048524;28;20017;-43
2021/08/18 08:19:11;;;;;;;4.90;4.10;;;19.10;99.90;;;;;;5049248;28;20052;-42
2021/08/18 08:21:36;;;;;;;5.18;3.50;;;19.20;99.90;;;;;;5049470;28;20037;-42
2021/08/18 08:24:02;;;;;;;4.80;4.30;;;18.90;99.90;;;;;;5048243;28;20060;-41
2021/08/18 08:26:29;;;;;;;8.45;4.20;;;18.90;99.90;;;;;;5048633;28;20377;-43
2021/08/18 08:28:54;;;;;;;6.65;3.97;;;18.70;99.90;;;;;;5049428;28;20021;-41
2021/08/18 08:31:20;;;;;;;4.90;3.80;;;18.60;99.90;;;;;;5049093;28;20028;-42
2021/08/18 08:33:45;;;;;;;7.13;3.60;;;18.60;99.90;;;;;;5049079;28;20029;-43
2021/08/18 08:36:11;;;;;;;6.10;3.95;;;18.70;99.90;;;;;;5048404;28;20384;-42
2021/08/18 08:38:37;;;;;;;5.97;4.13;;;18.70;99.90;;;;;;5048936;28;20025;-42
2021/08/18 08:41:05;;;;;;;4.78;3.70;;;18.60;99.90;;;;;;5048997;28;20426;-42
2021/08/18 08:43:31;;;;;;;9.35;4.00;;;18.60;99.90;;;;;;5048824;28;20491;-42
2021/08/18 08:45:56;;;;;;;7.03;4.28;;;18.80;99.90;;;;;;5047293;28;20399;-43
2021/08/18 08:48:22;;;;;;;8.00;4.35;;;18.90;99.90;;;;;;5048018;28;20021;-41
2021/08/18 08:50:49;;;;;;;6.32;4.10;;;19.10;99.90;;;;;;5048885;28;20055;-44
2021/08/18 08:53:15;;;;;;;6.53;3.78;;;19.20;99.90;;;;;;5048784;28;20028;-43
2021/08/18 08:55:42;;;;;;;8.15;4.05;;;19.40;99.90;;;;;;5049104;28;20033;-42
2021/08/18 08:58:07;;;;;;;7.63;4.03;;;19.40;99.90;;;;;;5046755;28;20437;-41
2021/08/18 09:00:33;;;;;;;4.57;3.08;;;19.20;99.90;;;;;;5048626;28;20037;-42
2021/08/18 09:03:08;;;;;;;6.38;4.10;;;19.10;99.90;;;;;;5048682;28;20063;-43
2021/08/18 09:05:34;;;;;;;5.47;3.80;;;19.00;99.90;;;;;;5048709;28;20036;-43
2021/08/18 09:08:00;;;;;;;5.03;3.53;;;18.80;99.90;;;;;;5048054;28;20075;-43
2021/08/18 09:10:26;;;;;;;7.88;3.22;;;18.70;99.90;;;;;;5047992;28;20052;-43
2021/08/18 09:13:07;;;;;;;5.30;3.28;;;18.60;99.90;;;;;;5048331;28;20065;-42
2021/08/18 09:15:32;;;;;;;5.93;4.30;;;18.50;99.90;;;;;;5048524;28;20025;-42
2021/08/18 09:17:58;;;;;;;5.55;3.63;;;18.20;99.90;;;;;;5047890;28;20056;-43
2021/08/18 09:20:28;;;;;;;11.70;4.07;;;18.00;99.90;;;;;;5048441;28;20421;-43
2021/08/18 09:22:56;;;;;;;5.22;4.05;;;17.90;99.90;;;;;;5048295;28;20387;-43
2021/08/18 09:25:29;;;;;;;5.60;3.88;;;17.60;99.90;;;;;;5048087;28;20082;-42
2021/08/18 09:28:13;;;;;;;8.07;4.85;;;17.60;99.90;;;;;;5047429;28;20028;-42
2021/08/18 09:30:41;;;;;;;5.28;4.30;;;17.40;99.90;;;;;;5048364;28;20376;-43
2021/08/18 09:33:16;;;;;;;4.80;3.53;;;17.40;99.90;;;;;;5048157;28;20021;-43
2021/08/18 09:35:42;;;;;;;3.78;3.22;;;17.70;99.90;;;;;;5047971;28;20382;-43
2021/08/18 09:38:11;;;;;;;4.82;3.80;;;17.90;99.90;;;;;;5047400;28;20017;-43
2021/08/18 09:40:48;;;;;;;6.28;3.70;;;17.90;99.90;;;;;;5048176;28;20044;-46
2021/08/18 09:43:27;;;;;;;4.53;3.58;;;17.90;99.90;;;;;;5048201;28;20021;-42
2021/08/18 09:46:01;;;;;;;3.80;2.90;;;17.80;99.90;;;;;;5047767;28;20029;-43
2021/08/18 09:48:28;;;;;;;7.03;3.63;;;17.70;99.90;;;;;;5045909;28;20111;-43
2021/08/18 09:51:05;;;;;;;6.40;3.30;;;17.60;99.90;;;;;;5047948;28;20491;-42
2021/08/18 09:53:33;;;;;;;8.70;3.75;;;17.50;99.90;;;;;;5048076;28;20033;-43
2021/08/18 09:56:05;;;;;;;7.28;4.35;;;17.20;99.90;;;;;;5046276;28;20025;-43
2021/08/18 09:58:35;;;;;;;7.65;5.07;;;17.20;99.90;;;;;;5047962;28;20044;-42
2021/08/18 10:01:08;;;;;;;9.13;5.00;;;17.00;99.90;;;;;;5047813;28;20025;-43
2021/08/18 10:03:34;;;;;;;5.30;4.55;;;17.10;99.90;;;;;;5047994;28;20219;-42
2021/08/18 10:06:00;;;;;;;4.75;4.18;;;17.40;99.90;;;;;;5047752;28;20037;-42
2021/08/18 10:08:26;;;;;;;5.00;3.85;;;17.70;99.90;;;;;;5047509;28;20035;-42
2021/08/18 10:10:52;;;;;;;3.80;3.00;;;17.80;99.90;;;;;;5048314;28;20385;-43
2021/08/18 10:13:20;;;;;;;5.10;3.13;;;17.90;99.90;;;;;;5047761;28;20035;-43
2021/08/18 10:15:46;;;;;;;1.83;1.65;;;18.00;99.90;;;;;;5047747;28;20060;-43
2021/08/18 10:18:32;;;;;;;3.35;2.25;;;17.80;99.90;;;;;;5046852;28;20423;-43
2021/08/18 10:21:02;;;;;;;5.28;2.40;;;17.80;99.90;;;;;;5047229;28;20021;-43
2021/08/18 10:23:50;;;;;;;3.72;2.22;;;17.60;99.90;;;;;;5050977;28;20032;-44
2021/08/18 10:26:33;;;;;;;3.67;2.83;;;17.50;99.90;;;;;;5050331;28;20024;-43
2021/08/18 10:29:01;;;;;;;4.20;3.22;;;17.40;99.90;;;;;;5050075;28;20036;-43
2021/08/18 10:34:23;;;;;;;4.47;3.40;;;17.00;99.90;;;;;;5051592;28;20061;-44
2021/08/18 10:36:50;;;;;;;;;;;17.00;99.90;;;;;;5051305;28;20024;-43
2021/08/18 10:39:19;;;;;;;4.13;3.20;;;17.00;99.90;;;;;;5051612;28;19954;-42
2021/08/18 10:42:05;;;;;;;3.80;2.70;;;16.90;99.90;;;;;;5051321;28;20029;-43
2021/08/18 10:44:41;;;;;;;5.15;2.90;;;17.10;99.90;;;;;;5051254;28;20420;-43
2021/08/18 10:47:33;;;;;;;5.40;2.60;;;17.20;99.90;;;;;;5050554;28;20039;-43
2021/08/18 10:50:23;;;;;;;5.40;3.25;;;17.70;99.90;;;;;;5051014;28;20056;-44
2021/08/18 10:52:55;;;;;;;4.18;3.15;;;18.40;99.90;;;;;;5050930;28;20036;-45
2021/08/18 10:55:23;;;;;;;6.10;3.25;;;19.50;99.90;;;;;;5051367;28;20458;-43
2021/08/18 10:57:56;;;;;;;6.85;3.30;;;20.10;99.90;;;;;;5050467;28;20414;-44
2021/08/18 11:00:37;;;;;;;4.68;3.00;;;21.00;99.90;;;;;;5049380;28;20027;-43
2021/08/18 11:03:22;;;;;;;4.88;3.40;;;21.60;99.90;;;;;;5050482;28;20584;-44
2021/08/18 11:05:49;;;;;;;3.90;2.88;;;22.10;99.90;;;;;;5050748;28;20029;-43
2021/08/18 11:08:23;;;;;;;5.05;2.92;;;22.80;99.90;;;;;;5050050;28;20495;-43
2021/08/18 11:10:52;;;;;;;4.85;3.95;;;23.10;99.90;;;;;;5050787;28;20096;-44
2021/08/18 11:13:39;;;;;;;3.58;2.35;;;23.00;99.40;;;;;;5050565;28;20021;-44
2021/08/18 11:16:10;;;;;;;4.18;3.13;;;23.30;99.30;;;;;;5050225;28;20028;-43
2021/08/18 11:18:37;;;;;;;6.05;2.97;;;23.20;99.20;;;;;;5050625;28;20517;-44
2021/08/18 11:21:03;;;;;;;5.88;3.45;;;22.90;99.70;;;;;;5050870;28;20025;-44
2021/08/18 11:23:31;;;;;;;6.00;3.17;;;22.80;99.90;;;;;;5050567;28;20288;-43
2021/08/18 11:26:00;;;;;;;4.20;3.13;;;22.80;98.70;;;;;;5050390;28;20025;-45
2021/08/18 11:28:27;;;;;;;6.72;3.25;;;22.90;99.10;;;;;;5049895;28;20225;-43
2021/08/18 11:31:00;;;;;;;4.28;2.70;;;22.70;98.40;;;;;;5050513;28;20502;-43
2021/08/18 11:33:26;;;;;;;3.50;2.70;;;22.30;98.00;;;;;;5049776;28;20025;-44
2021/08/18 11:35:53;;;;;;;4.18;3.22;;;21.70;99.30;;;;;;5050435;28;20396;-44
2021/08/18 11:38:19;;;;;;;5.15;2.90;;;21.30;99.90;;;;;;5049641;28;20146;-44
2021/08/18 11:40:51;;;;;;;6.13;3.08;;;20.90;99.90;;;;;;5050130;28;20115;-44
2021/08/18 11:43:16;;;;;;;3.95;2.75;;;20.60;99.90;;;;;;5050254;28;20028;-44
2021/08/18 11:45:49;;;;;;;8.38;2.90;;;20.30;99.90;;;;;;5050186;28;20029;-43
2021/08/18 11:48:15;;;;;;;4.00;2.40;;;20.30;99.90;;;;;;5049634;28;20021;-42
2021/08/18 11:50:51;;;;;;;2.92;2.28;;;20.40;99.90;;;;;;5049996;28;20035;-43
2021/08/18 11:53:18;;;;;;;5.88;2.78;;;20.30;99.90;;;;;;5049975;28;20028;-43
2021/08/18 11:55:44;;;;;;;7.30;3.13;;;20.20;99.90;;;;;;5050269;28;20235;-43
2021/08/18 11:58:10;;;;;;;2.95;2.65;;;19.90;99.90;;;;;;5049427;28;20075;-43
2021/08/18 12:00:36;;;;;;;7.43;3.65;;;19.70;99.90;;;;;;5049913;28;20530;-43
2021/08/18 12:03:02;;;;;;;2.95;2.33;;;19.40;99.90;;;;;;5049779;28;20028;-42
2021/08/18 12:05:29;;;;;;;5.07;2.97;;;19.30;99.90;;;;;;5049689;28;20479;-43
2021/08/18 12:08:17;;;;;;;4.28;2.97;;;19.30;99.90;;;;;;5048972;28;20029;-43
2021/08/18 12:10:47;;;;;;;4.82;2.67;;;19.50;99.90;;;;;;5049895;28;20334;-43
2021/08/18 12:13:18;;;;;;;5.13;3.35;;;19.50;99.90;;;;;;5049280;28;20063;-44
2021/08/18 12:15:46;;;;;;;;;;;19.50;99.90;;;;;;5049853;28;20083;-44
2021/08/18 12:18:34;;;;;;;5.00;3.10;;;19.50;99.90;;;;;;5048484;28;19984;-43
2021/08/18 12:21:35;;;;;;;8.15;3.10;;;19.30;99.90;;;;;;5047741;28;20029;-43
2021/08/18 12:24:12;;;;;;;5.90;3.25;;;19.10;99.90;;;;;;4987036;28;20041;-43
2021/08/18 12:26:40;;;;;;;4.88;2.80;;;18.90;99.90;;;;;;5040823;28;20037;-44
2021/08/18 12:29:08;;;;;;;4.13;3.25;;;18.70;99.90;;;;;;5049076;28;20060;-43
2021/08/18 12:32:05;;;;;;;2.83;2.45;;;18.70;99.90;;;;;;5049094;28;20222;-43
2021/08/18 12:34:42;;;;;;;4.00;2.70;;;18.80;99.90;;;;;;5047753;28;20021;-43
2021/08/18 12:37:17;;;;;;;3.40;2.72;;;18.80;99.90;;;;;;5048281;28;20021;-43
2021/08/18 12:39:56;;;;;;;4.93;2.95;;;18.80;99.90;;;;;;5048097;28;20025;-42
2021/08/18 12:42:29;;;;;;;4.40;2.88;;;18.70;99.90;;;;;;5049225;28;20032;-43
2021/08/18 12:45:04;;;;;;;4.57;2.88;;;18.70;99.90;;;;;;5048195;28;20029;-43